createdAt,value
2023-04-18T00:00:00.207Z,7.6
2023-04-18T00:01:00.172Z,7.6
2023-04-18T00:02:00.288Z,7.6
2023-04-18T00:03:03.221Z,7.6
2023-04-18T00:04:00.451Z,7.6
2023-04-18T00:05:00.332Z,7.6
2023-04-18T00:06:00.202Z,7.6
2023-04-18T00:07:00.191Z,7.6
2023-04-18T00:08:00.200Z,7.6
2023-04-18T00:09:00.232Z,7.6
2023-04-18T00:10:00.243Z,7.6
2023-04-18T00:11:00.207Z,7.6
2023-04-18T00:12:00.195Z,7.6
2023-04-18T00:13:00.209Z,7.6
2023-04-18T00:14:00.202Z,7.6
2023-04-18T00:15:00.205Z,7.6
2023-04-18T00:16:00.218Z,7.6
2023-04-18T00:17:00.248Z,7.6
2023-04-18T00:18:00.288Z,7.6
2023-04-18T00:19:00.207Z,7.6
2023-04-18T00:20:00.217Z,7.6
2023-04-18T00:21:00.207Z,7.6
2023-04-18T00:22:00.216Z,7.6
2023-04-18T00:23:00.214Z,7.6
2023-04-18T00:24:00.210Z,7.6
2023-04-18T00:25:00.233Z,7.6
2023-04-18T00:26:00.213Z,7.6
2023-04-18T00:27:00.215Z,7.6
2023-04-18T00:28:00.226Z,7.7
2023-04-18T00:29:00.209Z,7.7
2023-04-18T00:30:00.230Z,7.6
2023-04-18T00:31:00.280Z,7.7
2023-04-18T00:32:00.210Z,7.6
2023-04-18T00:33:00.280Z,7.6
2023-04-18T00:34:00.213Z,7.6
2023-04-18T00:35:00.214Z,7.6
2023-04-18T00:36:00.221Z,7.7
2023-04-18T00:37:00.235Z,7.6
2023-04-18T00:38:00.229Z,7.7
2023-04-18T00:39:00.246Z,7.7
2023-04-18T00:40:00.285Z,7.7
2023-04-18T00:41:00.223Z,7.7
2023-04-18T00:42:00.228Z,7.7
2023-04-18T00:43:00.240Z,7.7
2023-04-18T00:44:00.223Z,7.7
2023-04-18T00:45:00.273Z,7.7
2023-04-18T00:46:00.341Z,7.7
2023-04-18T00:47:00.237Z,7.7
2023-04-18T00:48:00.311Z,7.7
2023-04-18T00:49:00.232Z,7.7
2023-04-18T00:50:00.272Z,7.7
2023-04-18T00:51:01.170Z,7.6
2023-04-18T00:52:00.249Z,7.6
2023-04-18T00:53:00.231Z,7.7
2023-04-18T00:54:00.236Z,7.7
2023-04-18T00:55:00.253Z,7.7
2023-04-18T00:56:00.244Z,7.7
2023-04-18T00:57:00.265Z,7.7
2023-04-18T00:58:00.254Z,7.7
2023-04-18T00:59:00.260Z,7.7
2023-04-18T01:00:00.270Z,7.7
2023-04-18T01:01:00.261Z,7.7
2023-04-18T01:02:00.537Z,7.7
2023-04-18T01:03:00.398Z,7.7
2023-04-18T01:04:00.406Z,7.7
2023-04-18T01:05:00.271Z,7.7
2023-04-18T01:06:00.250Z,7.7
2023-04-18T01:07:00.255Z,7.7
2023-04-18T01:08:00.251Z,7.6
2023-04-18T01:09:00.277Z,7.7
2023-04-18T01:10:00.268Z,7.7
2023-04-18T01:11:00.251Z,7.7
2023-04-18T01:12:00.254Z,7.7
2023-04-18T01:13:00.258Z,7.7
2023-04-18T01:14:00.271Z,7.7
2023-04-18T01:15:00.277Z,7.6
2023-04-18T01:16:00.314Z,7.7
2023-04-18T01:17:00.260Z,7.7
2023-04-18T01:18:00.349Z,7.7
2023-04-18T01:19:00.267Z,7.7
2023-04-18T01:20:00.273Z,7.7
2023-04-18T01:21:00.286Z,7.7
2023-04-18T01:22:00.282Z,7.7
2023-04-18T01:23:00.269Z,7.6
2023-04-18T01:24:00.274Z,7.6
2023-04-18T01:25:00.296Z,7.7
2023-04-18T01:26:00.267Z,7.7
2023-04-18T01:27:00.282Z,7.7
2023-04-18T01:28:00.270Z,7.7
2023-04-18T01:29:00.287Z,7.7
2023-04-18T01:30:00.270Z,7.8
2023-04-18T01:31:00.311Z,7.7
2023-04-18T01:32:00.285Z,7.8
2023-04-18T01:33:00.401Z,7.7
2023-04-18T01:34:00.281Z,7.8
2023-04-18T01:35:00.293Z,7.8
2023-04-18T01:36:00.274Z,7.8
2023-04-18T01:37:00.307Z,7.8
2023-04-18T01:38:00.289Z,7.8
2023-04-18T01:39:00.306Z,7.8
2023-04-18T01:40:00.293Z,7.7
2023-04-18T01:41:00.300Z,7.8
2023-04-18T01:42:00.293Z,7.8
2023-04-18T01:43:00.286Z,7.8
2023-04-18T01:44:00.457Z,7.8
2023-04-18T01:45:00.280Z,7.8
2023-04-18T01:46:00.302Z,7.8
2023-04-18T01:47:00.326Z,7.8
2023-04-18T01:48:00.328Z,7.8
2023-04-18T01:49:00.304Z,7.8
2023-04-18T01:50:00.308Z,7.7
2023-04-18T01:51:00.307Z,7.7
2023-04-18T01:52:00.295Z,7.7
2023-04-18T01:53:00.291Z,7.7
2023-04-18T01:54:00.326Z,7.7
2023-04-18T01:55:00.314Z,7.7
2023-04-18T01:56:00.317Z,7.7
2023-04-18T01:57:00.295Z,7.7
2023-04-18T01:58:00.299Z,7.7
2023-04-18T01:59:00.297Z,7.7
2023-04-18T02:00:00.310Z,7.7
2023-04-18T02:01:00.881Z,7.7
2023-04-18T02:02:00.741Z,7.7
2023-04-18T02:03:00.827Z,7.7
2023-04-18T02:04:00.762Z,7.7
2023-04-18T02:05:00.761Z,7.7
2023-04-18T02:06:00.728Z,7.6
2023-04-18T02:07:00.719Z,7.7
2023-04-18T02:08:00.730Z,7.7
2023-04-18T02:09:00.722Z,7.7
2023-04-18T02:10:00.742Z,7.7
2023-04-18T02:11:00.731Z,7.7
2023-04-18T02:12:00.717Z,7.7
2023-04-18T02:13:00.707Z,7.7
2023-04-18T02:14:00.724Z,7.7
2023-04-18T02:15:00.746Z,7.7
2023-04-18T02:16:00.770Z,7.7
2023-04-18T02:17:00.755Z,7.7
2023-04-18T02:18:00.755Z,7.7
2023-04-18T02:19:00.745Z,7.7
2023-04-18T02:20:00.776Z,7.7
2023-04-18T02:21:00.735Z,7.7
2023-04-18T02:22:00.733Z,7.6
2023-04-18T02:23:00.748Z,7.6
2023-04-18T02:24:00.734Z,7.6
2023-04-18T02:25:00.751Z,7.6
2023-04-18T02:26:00.760Z,7.6
2023-04-18T02:27:00.725Z,7.6
2023-04-18T02:28:00.759Z,7.6
2023-04-18T02:29:00.756Z,7.6
2023-04-18T02:30:00.745Z,7.6
2023-04-18T02:31:00.745Z,7.6
2023-04-18T02:32:00.762Z,7.6
2023-04-18T02:33:00.808Z,7.6
2023-04-18T02:34:00.735Z,7.6
2023-04-18T02:35:00.768Z,7.6
2023-04-18T02:36:00.758Z,7.6
2023-04-18T02:37:00.742Z,7.6
2023-04-18T02:38:00.749Z,7.6
2023-04-18T02:39:00.741Z,7.6
2023-04-18T02:40:00.772Z,7.6
2023-04-18T02:41:00.754Z,7.6
2023-04-18T02:42:00.742Z,7.6
2023-04-18T02:43:00.737Z,7.6
2023-04-18T02:44:00.752Z,7.6
2023-04-18T02:45:00.773Z,7.6
2023-04-18T02:46:00.768Z,7.6
2023-04-18T02:47:00.748Z,7.6
2023-04-18T02:48:00.776Z,7.6
2023-04-18T02:49:00.767Z,7.6
2023-04-18T02:50:00.753Z,7.6
2023-04-18T02:51:00.764Z,7.6
2023-04-18T02:52:00.748Z,7.6
2023-04-18T02:53:00.743Z,7.6
2023-04-18T02:54:00.768Z,7.6
2023-04-18T02:55:00.837Z,7.6
2023-04-18T02:56:00.764Z,7.6
2023-04-18T02:57:00.752Z,7.6
2023-04-18T02:58:00.759Z,7.6
2023-04-18T02:59:00.821Z,7.6
2023-04-18T03:00:00.805Z,7.6
2023-04-18T03:01:00.784Z,7.6
2023-04-18T03:02:00.860Z,7.6
2023-04-18T03:03:00.832Z,7.6
2023-04-18T03:04:00.772Z,7.6
2023-04-18T03:05:00.801Z,7.6
2023-04-18T03:06:00.775Z,7.6
2023-04-18T03:07:00.760Z,7.6
2023-04-18T03:08:00.767Z,7.6
2023-04-18T03:09:00.778Z,7.6
2023-04-18T03:10:00.789Z,7.6
2023-04-18T03:11:00.778Z,7.6
2023-04-18T03:12:00.772Z,7.6
2023-04-18T03:13:00.771Z,7.6
2023-04-18T03:14:00.798Z,7.5
2023-04-18T03:15:00.780Z,7.5
2023-04-18T03:16:00.813Z,7.5
2023-04-18T03:17:00.791Z,7.5
2023-04-18T03:18:00.800Z,7.5
2023-04-18T03:19:00.777Z,7.5
2023-04-18T03:20:00.790Z,7.5
2023-04-18T03:21:00.790Z,7.5
2023-04-18T03:22:00.785Z,7.5
2023-04-18T03:23:00.818Z,7.4
2023-04-18T03:24:00.780Z,7.4
2023-04-18T03:25:00.797Z,7.4
2023-04-18T03:26:00.777Z,7.4
2023-04-18T03:27:00.804Z,7.4
2023-04-18T03:28:00.794Z,7.4
2023-04-18T03:29:00.785Z,7.4
2023-04-18T03:30:00.790Z,7.4
2023-04-18T03:31:00.954Z,7.4
2023-04-18T03:32:00.904Z,7.4
2023-04-18T03:33:00.860Z,7.4
2023-04-18T03:34:00.787Z,7.4
2023-04-18T03:35:00.791Z,7.4
2023-04-18T03:36:00.779Z,7.4
2023-04-18T03:37:00.807Z,7.4
2023-04-18T03:38:00.789Z,7.4
2023-04-18T03:39:00.782Z,7.4
2023-04-18T03:40:00.814Z,7.4
2023-04-18T03:41:00.809Z,7.4
2023-04-18T03:42:00.803Z,7.4
2023-04-18T03:43:00.822Z,7.4
2023-04-18T03:44:00.788Z,7.4
2023-04-18T03:45:00.789Z,7.5
2023-04-18T03:46:01.677Z,7.4
2023-04-18T03:47:00.840Z,7.4
2023-04-18T03:48:00.923Z,7.4
2023-04-18T03:49:00.806Z,7.4
2023-04-18T03:50:00.803Z,7.4
2023-04-18T03:51:00.842Z,7.4
2023-04-18T03:52:00.816Z,7.4
2023-04-18T03:53:00.812Z,7.4
2023-04-18T03:54:00.800Z,7.4
2023-04-18T03:55:00.849Z,7.4
2023-04-18T03:56:00.803Z,7.4
2023-04-18T03:57:00.831Z,7.4
2023-04-18T03:58:00.824Z,7.4
2023-04-18T03:59:00.814Z,7.4
2023-04-18T04:00:00.821Z,7.4
2023-04-18T04:01:00.815Z,7.4
2023-04-18T04:02:00.975Z,7.4
2023-04-18T04:04:00.894Z,7.3
2023-04-18T04:05:00.909Z,7.4
2023-04-18T04:06:00.820Z,7.4
2023-04-18T04:07:00.836Z,7.4
2023-04-18T04:08:00.829Z,7.4
2023-04-18T04:09:00.836Z,7.4
2023-04-18T04:10:00.845Z,7.4
2023-04-18T04:11:00.831Z,7.4
2023-04-18T04:12:00.833Z,7.4
2023-04-18T04:13:00.827Z,7.4
2023-04-18T04:14:00.851Z,7.4
2023-04-18T04:15:00.851Z,7.4
2023-04-18T04:16:00.902Z,7.4
2023-04-18T04:17:00.826Z,7.4
2023-04-18T04:18:00.873Z,7.4
2023-04-18T04:19:00.826Z,7.4
2023-04-18T04:20:00.852Z,7.4
2023-04-18T04:21:00.853Z,7.4
2023-04-18T04:22:00.838Z,7.4
2023-04-18T04:23:00.838Z,7.4
2023-04-18T04:24:00.839Z,7.4
2023-04-18T04:25:00.879Z,7.4
2023-04-18T04:26:00.843Z,7.4
2023-04-18T04:27:00.843Z,7.4
2023-04-18T04:28:00.834Z,7.4
2023-04-18T04:29:00.853Z,7.4
2023-04-18T04:30:00.875Z,7.4
2023-04-18T04:31:00.851Z,7.4
2023-04-18T04:32:00.896Z,7.4
2023-04-18T04:33:00.858Z,7.4
2023-04-18T04:34:00.861Z,7.4
2023-04-18T04:35:00.864Z,7.4
2023-04-18T04:36:00.873Z,7.4
2023-04-18T04:37:00.857Z,7.4
2023-04-18T04:38:00.856Z,7.4
2023-04-18T04:39:00.864Z,7.4
2023-04-18T04:40:00.932Z,7.4
2023-04-18T04:41:00.853Z,7.4
2023-04-18T04:44:00.992Z,7.4
2023-04-18T04:45:01.016Z,7.4
2023-04-18T04:46:01.018Z,7.4
2023-04-18T04:47:00.986Z,7.4
2023-04-18T04:48:01.010Z,7.4
2023-04-18T04:49:00.986Z,7.4
2023-04-18T04:50:00.994Z,7.4
2023-04-18T04:51:00.976Z,7.4
2023-04-18T04:52:02.094Z,7.4
2023-04-18T04:53:00.983Z,7.4
2023-04-18T04:54:00.990Z,7.4
2023-04-18T04:55:01.004Z,7.4
2023-04-18T04:56:00.975Z,7.4
2023-04-18T04:57:00.984Z,7.4
2023-04-18T04:58:01.006Z,7.4
2023-04-18T04:59:00.987Z,7.4
2023-04-18T05:00:01.010Z,7.4
2023-04-18T05:01:01.067Z,7.4
2023-04-18T05:02:01.014Z,7.4
2023-04-18T05:03:01.049Z,7.4
2023-04-18T05:04:01.096Z,7.4
2023-04-18T05:05:01.014Z,7.4
2023-04-18T05:06:01.006Z,7.4
2023-04-18T05:07:01.008Z,7.4
2023-04-18T05:08:01.050Z,7.4
2023-04-18T05:09:01.069Z,7.4
2023-04-18T05:10:01.019Z,7.4
2023-04-18T05:11:01.013Z,7.4
2023-04-18T05:12:00.995Z,7.4
2023-04-18T05:13:01.014Z,7.4
2023-04-18T05:14:01.006Z,7.4
2023-04-18T05:15:01.056Z,7.5
2023-04-18T05:16:01.005Z,7.4
2023-04-18T05:17:01.102Z,7.4
2023-04-18T05:18:01.099Z,7.4
2023-04-18T05:19:00.352Z,7.4
2023-04-18T05:20:00.366Z,7.4
2023-04-18T05:21:00.375Z,7.4
2023-04-18T05:22:00.316Z,7.4
2023-04-18T05:23:00.354Z,7.4
2023-04-18T05:24:00.328Z,7.4
2023-04-18T05:25:00.338Z,7.4
2023-04-18T05:26:00.344Z,7.4
2023-04-18T05:27:00.325Z,7.4
2023-04-18T05:28:00.316Z,7.5
2023-04-18T05:29:00.337Z,7.5
2023-04-18T05:30:00.378Z,7.5
2023-04-18T05:31:00.370Z,7.5
2023-04-18T05:32:00.341Z,7.5
2023-04-18T05:33:00.410Z,7.5
2023-04-18T05:34:00.346Z,7.5
2023-04-18T05:35:00.360Z,7.5
2023-04-18T05:36:00.365Z,7.5
2023-04-18T05:37:00.360Z,7.6
2023-04-18T05:38:00.364Z,7.5
2023-04-18T05:39:00.377Z,7.5
2023-04-18T05:40:01.124Z,7.5
2023-04-18T05:41:00.467Z,7.5
2023-04-18T05:42:00.352Z,7.5
2023-04-18T05:43:00.352Z,7.5
2023-04-18T05:44:05.390Z,7.6
2023-04-18T05:45:00.368Z,7.6
2023-04-18T05:46:00.405Z,7.6
2023-04-18T05:47:00.376Z,7.6
2023-04-18T05:48:00.412Z,7.6
2023-04-18T05:49:00.368Z,7.6
2023-04-18T05:50:00.440Z,7.6
2023-04-18T05:51:00.437Z,7.6
2023-04-18T05:52:00.383Z,7.6
2023-04-18T05:53:00.433Z,7.6
2023-04-18T05:54:00.405Z,7.6
2023-04-18T05:55:00.390Z,7.6
2023-04-18T05:56:00.413Z,7.6
2023-04-18T05:57:01.750Z,7.5
2023-04-18T05:58:00.395Z,7.5
2023-04-18T05:59:00.501Z,7.5
2023-04-18T06:00:00.409Z,7.5
2023-04-18T06:01:00.388Z,7.5
2023-04-18T06:02:00.476Z,7.5
2023-04-18T06:03:00.543Z,7.5
2023-04-18T06:04:00.704Z,7.5
2023-04-18T06:05:00.580Z,7.5
2023-04-18T06:06:00.488Z,7.5
2023-04-18T06:07:00.387Z,7.5
2023-04-18T06:08:00.401Z,7.5
2023-04-18T06:09:00.377Z,7.5
2023-04-18T06:10:00.413Z,7.5
2023-04-18T06:11:00.420Z,7.4
2023-04-18T06:12:00.371Z,7.5
2023-04-18T06:13:00.419Z,7.4
2023-04-18T06:14:00.381Z,7.4
2023-04-18T06:15:00.442Z,7.4
2023-04-18T06:16:00.444Z,7.4
2023-04-18T06:17:00.398Z,7.4
2023-04-18T06:18:00.441Z,7.5
2023-04-18T06:19:01.448Z,7.5
2023-04-18T06:20:00.424Z,7.5
2023-04-18T06:21:00.392Z,7.5
2023-04-18T06:22:00.384Z,7.5
2023-04-18T06:23:00.383Z,7.5
2023-04-18T06:24:00.391Z,7.5
2023-04-18T06:25:00.439Z,7.5
2023-04-18T06:26:00.411Z,7.5
2023-04-18T06:27:00.417Z,7.5
2023-04-18T06:28:00.399Z,7.5
2023-04-18T06:29:00.396Z,7.5
2023-04-18T06:30:00.456Z,7.5
2023-04-18T06:31:00.416Z,7.5
2023-04-18T06:32:00.508Z,7.5
2023-04-18T06:33:00.504Z,7.5
2023-04-18T06:34:00.421Z,7.5
2023-04-18T06:35:00.421Z,7.6
2023-04-18T06:36:00.401Z,7.6
2023-04-18T06:37:00.445Z,7.6
2023-04-18T06:38:00.426Z,7.6
2023-04-18T06:39:00.420Z,7.6
2023-04-18T06:40:00.449Z,7.6
2023-04-18T06:41:00.428Z,7.6
2023-04-18T06:42:00.409Z,7.6
2023-04-18T06:43:00.439Z,7.6
2023-04-18T06:44:03.975Z,7.6
2023-04-18T06:45:00.453Z,7.6
2023-04-18T06:46:00.470Z,7.6
2023-04-18T06:47:00.429Z,7.6
2023-04-18T06:48:00.473Z,7.6
2023-04-18T06:49:00.436Z,7.6
2023-04-18T06:50:00.443Z,7.6
2023-04-18T06:51:00.436Z,7.7
2023-04-18T06:52:00.418Z,7.7
2023-04-18T06:53:00.437Z,7.6
2023-04-18T06:54:00.442Z,7.6
2023-04-18T06:55:00.450Z,7.7
2023-04-18T06:56:00.465Z,7.7
2023-04-18T06:57:00.423Z,7.6
2023-04-18T06:58:00.499Z,7.7
2023-04-18T06:59:00.428Z,7.6
2023-04-18T07:00:00.446Z,7.7
2023-04-18T07:01:00.469Z,7.7
2023-04-18T07:02:00.477Z,7.7
2023-04-18T07:03:00.651Z,7.7
2023-04-18T07:04:00.626Z,7.7
2023-04-18T07:05:00.431Z,7.7
2023-04-18T07:06:00.446Z,7.7
2023-04-18T07:07:00.453Z,7.7
2023-04-18T07:08:00.444Z,7.7
2023-04-18T07:09:00.446Z,7.7
2023-04-18T07:10:00.432Z,7.7
2023-04-18T07:11:00.453Z,7.7
2023-04-18T07:12:00.454Z,7.8
2023-04-18T07:13:00.439Z,7.8
2023-04-18T07:14:00.441Z,7.8
2023-04-18T07:15:00.462Z,7.8
2023-04-18T07:16:00.470Z,7.8
2023-04-18T07:17:00.484Z,7.8
2023-04-18T07:18:00.476Z,7.8
2023-04-18T07:19:00.511Z,7.8
2023-04-18T07:20:00.463Z,7.8
2023-04-18T07:21:00.478Z,7.8
2023-04-18T07:22:00.443Z,7.8
2023-04-18T07:23:00.473Z,7.8
2023-04-18T07:24:00.464Z,7.8
2023-04-18T07:25:00.441Z,7.8
2023-04-18T07:26:00.438Z,7.8
2023-04-18T07:27:00.444Z,7.9
2023-04-18T07:28:00.475Z,7.8
2023-04-18T07:29:00.447Z,7.8
2023-04-18T07:30:00.512Z,7.8
2023-04-18T07:31:00.459Z,7.9
2023-04-18T07:32:00.489Z,7.9
2023-04-18T07:33:00.515Z,7.8
2023-04-18T07:34:00.472Z,7.9
2023-04-18T07:35:00.491Z,7.9
2023-04-18T07:36:00.477Z,7.8
2023-04-18T07:37:00.475Z,7.8
2023-04-18T07:38:00.485Z,7.9
2023-04-18T07:39:00.500Z,7.9
2023-04-18T07:40:00.460Z,7.9
2023-04-18T07:41:00.458Z,7.9
2023-04-18T07:42:00.465Z,7.9
2023-04-18T07:43:00.499Z,7.9
2023-04-18T07:44:00.492Z,7.9
2023-04-18T07:45:00.465Z,7.9
2023-04-18T07:46:00.480Z,7.9
2023-04-18T07:47:00.487Z,7.9
2023-04-18T07:48:00.506Z,7.9
2023-04-18T07:49:00.509Z,7.9
2023-04-18T07:50:00.490Z,7.9
2023-04-18T07:51:00.487Z,7.9
2023-04-18T07:52:00.478Z,7.9
2023-04-18T07:53:00.496Z,7.9
2023-04-18T07:54:00.500Z,7.9
2023-04-18T07:55:00.482Z,7.9
2023-04-18T07:56:00.494Z,7.8
2023-04-18T07:57:00.496Z,7.9
2023-04-18T07:58:00.509Z,7.9
2023-04-18T07:59:00.484Z,7.9
2023-04-18T08:00:00.484Z,7.9
2023-04-18T08:01:00.501Z,7.9
2023-04-18T08:02:00.550Z,7.9
2023-04-18T08:03:00.681Z,7.9
2023-04-18T08:04:00.692Z,7.9
2023-04-18T08:05:00.763Z,8
2023-04-18T08:06:00.507Z,8
2023-04-18T08:07:00.509Z,8.1
2023-04-18T08:08:00.494Z,8.1
2023-04-18T08:09:00.519Z,8.1
2023-04-18T08:10:00.499Z,8.1
2023-04-18T08:11:00.525Z,8.1
2023-04-18T08:12:00.501Z,8.2
2023-04-18T08:13:00.516Z,8.2
2023-04-18T08:14:00.524Z,8.2
2023-04-18T08:15:00.501Z,8.1
2023-04-18T08:16:00.517Z,8.1
2023-04-18T08:17:00.514Z,8.1
2023-04-18T08:18:00.619Z,8.1
2023-04-18T08:19:00.518Z,8.1
2023-04-18T08:20:00.536Z,8.1
2023-04-18T08:21:00.530Z,8.1
2023-04-18T08:22:00.509Z,8.1
2023-04-18T08:24:00.526Z,8.1
2023-04-18T08:25:04.814Z,8.1
2023-04-18T08:26:00.511Z,8.1
2023-04-18T08:27:00.520Z,8.1
2023-04-18T08:28:00.570Z,8.1
2023-04-18T08:29:00.536Z,8.1
2023-04-18T08:30:00.608Z,8.1
2023-04-18T08:31:00.526Z,8.1
2023-04-18T08:32:00.584Z,8.1
2023-04-18T08:33:00.674Z,8.1
2023-04-18T08:34:01.331Z,8.2
2023-04-18T08:35:00.838Z,8.2
2023-04-18T08:36:00.521Z,8.2
2023-04-18T08:37:00.528Z,8.2
2023-04-18T08:38:00.545Z,8.2
2023-04-18T08:39:00.535Z,8.2
2023-04-18T08:40:00.524Z,8.2
2023-04-18T08:41:00.529Z,8.2
2023-04-18T08:42:00.528Z,8.2
2023-04-18T08:43:00.547Z,8.2
2023-04-18T08:44:00.583Z,8.2
2023-04-18T08:45:00.545Z,8.2
2023-04-18T08:46:00.614Z,8.2
2023-04-18T08:47:00.537Z,8.2
2023-04-18T08:48:00.608Z,8.2
2023-04-18T08:49:00.558Z,8.2
2023-04-18T08:50:00.578Z,8.2
2023-04-18T08:51:00.581Z,8.3
2023-04-18T08:52:00.538Z,8.3
2023-04-18T08:53:00.567Z,8.3
2023-04-18T08:54:00.554Z,8.4
2023-04-18T08:55:00.546Z,8.4
2023-04-18T08:56:00.565Z,8.4
2023-04-18T08:57:00.543Z,8.4
2023-04-18T08:58:00.565Z,8.4
2023-04-18T08:59:00.588Z,8.5
2023-04-18T09:00:00.568Z,8.4
2023-04-18T09:01:00.602Z,8.5
2023-04-18T09:02:00.586Z,8.5
2023-04-18T09:03:00.682Z,8.5
2023-04-18T09:04:00.656Z,8.6
2023-04-18T09:05:00.578Z,8.6
2023-04-18T09:06:00.550Z,8.5
2023-04-18T09:07:00.573Z,8.6
2023-04-18T09:08:00.583Z,8.6
2023-04-18T09:09:00.574Z,8.6
2023-04-18T09:10:00.561Z,8.6
2023-04-18T09:11:00.555Z,8.5
2023-04-18T09:12:00.588Z,8.5
2023-04-18T09:13:00.567Z,8.5
2023-04-18T09:14:00.626Z,8.5
2023-04-18T09:15:00.587Z,8.5
2023-04-18T09:16:00.566Z,8.4
2023-04-18T09:17:00.672Z,8.4
2023-04-18T09:18:00.603Z,8.4
2023-04-18T09:19:00.589Z,8.5
2023-04-18T09:20:00.590Z,8.5
2023-04-18T09:21:00.571Z,8.5
2023-04-18T09:22:00.580Z,8.6
2023-04-18T09:23:00.601Z,8.6
2023-04-18T09:24:00.596Z,8.6
2023-04-18T09:25:00.592Z,8.6
2023-04-18T09:26:00.587Z,8.7
2023-04-18T09:27:00.629Z,8.7
2023-04-18T09:28:00.584Z,8.8
2023-04-18T09:29:00.603Z,8.8
2023-04-18T09:30:00.617Z,8.9
2023-04-18T09:31:00.642Z,8.9
2023-04-18T09:32:00.598Z,8.9
2023-04-18T09:33:00.648Z,9
2023-04-18T09:34:00.659Z,9
2023-04-18T09:35:03.402Z,9
2023-04-18T09:36:00.583Z,9
2023-04-18T09:37:00.639Z,9
2023-04-18T09:38:00.600Z,9
2023-04-18T09:39:00.738Z,9
2023-04-18T09:40:00.596Z,9
2023-04-18T09:41:00.595Z,8.9
2023-04-18T09:42:00.604Z,8.9
2023-04-18T09:43:00.598Z,8.9
2023-04-18T09:44:00.620Z,8.9
2023-04-18T09:45:00.614Z,8.9
2023-04-18T09:46:00.637Z,8.9
2023-04-18T09:47:00.606Z,8.9
2023-04-18T09:48:00.658Z,8.9
2023-04-18T09:49:00.621Z,9
2023-04-18T09:50:00.631Z,8.9
2023-04-18T09:51:00.623Z,8.9
2023-04-18T09:52:00.610Z,8.9
2023-04-18T09:53:00.617Z,8.9
2023-04-18T09:54:00.619Z,8.9
2023-04-18T09:55:00.602Z,8.9
2023-04-18T09:56:00.622Z,9
2023-04-18T09:57:00.600Z,9.1
2023-04-18T09:58:00.615Z,9.1
2023-04-18T09:59:00.619Z,9.1
2023-04-18T10:00:00.632Z,9.2
2023-04-18T10:01:00.657Z,9.2
2023-04-18T10:02:00.662Z,9.2
2023-04-18T10:03:00.673Z,9.3
2023-04-18T10:04:00.752Z,9.4
2023-04-18T10:05:00.749Z,9.5
2023-04-18T10:06:00.632Z,9.6
2023-04-18T10:07:00.622Z,9.6
2023-04-18T10:08:00.627Z,9.7
2023-04-18T10:09:00.632Z,9.8
2023-04-18T10:10:00.613Z,9.8
2023-04-18T10:11:00.643Z,9.8
2023-04-18T10:12:00.614Z,9.7
2023-04-18T10:13:00.615Z,9.6
2023-04-18T10:14:00.629Z,9.7
2023-04-18T10:15:00.625Z,9.7
2023-04-18T10:16:00.717Z,9.7
2023-04-18T10:17:00.655Z,9.7
2023-04-18T10:18:05.254Z,9.8
2023-04-18T10:19:00.640Z,9.8
2023-04-18T10:20:00.655Z,9.8
2023-04-18T10:21:00.663Z,9.8
2023-04-18T10:22:00.661Z,9.8
2023-04-18T10:23:00.639Z,9.8
2023-04-18T10:24:00.636Z,9.8
2023-04-18T10:25:00.643Z,9.8
2023-04-18T10:26:00.674Z,9.8
2023-04-18T10:27:00.633Z,9.9
2023-04-18T10:28:00.632Z,9.9
2023-04-18T10:29:00.630Z,9.9
2023-04-18T10:30:00.664Z,9.9
2023-04-18T10:31:00.704Z,10
2023-04-18T10:32:00.732Z,10.1
2023-04-18T10:33:00.684Z,10
2023-04-18T10:35:00.679Z,10.1
2023-04-18T10:36:00.677Z,10.1
2023-04-18T10:37:00.646Z,10.1
2023-04-18T10:38:00.651Z,10.1
2023-04-18T10:39:00.657Z,10.2
2023-04-18T10:40:00.658Z,10.2
2023-04-18T10:41:00.702Z,10.2
2023-04-18T10:42:00.653Z,10.2
2023-04-18T10:43:00.690Z,10.2
2023-04-18T10:44:00.661Z,10.3
2023-04-18T10:45:01.751Z,10.4
2023-04-18T10:46:00.707Z,10.5
2023-04-18T10:47:00.742Z,10.5
2023-04-18T10:48:00.698Z,10.5
2023-04-18T10:49:00.659Z,10.6
2023-04-18T10:50:00.670Z,10.6
2023-04-18T10:51:00.698Z,10.6
2023-04-18T10:52:00.658Z,10.7
2023-04-18T10:53:00.668Z,10.7
2023-04-18T10:54:00.671Z,10.6
2023-04-18T10:55:00.688Z,10.6
2023-04-18T10:56:00.698Z,10.7
2023-04-18T10:57:00.686Z,10.8
2023-04-18T10:58:00.670Z,10.8
2023-04-18T10:59:00.687Z,10.9
2023-04-18T11:00:00.707Z,10.9
2023-04-18T11:01:00.724Z,11.1
2023-04-18T11:02:00.780Z,11.1
2023-04-18T11:03:00.850Z,11.2
2023-04-18T11:04:01.101Z,11.3
2023-04-18T11:05:00.689Z,11.4
2023-04-18T11:06:00.697Z,11.4
2023-04-18T11:07:00.691Z,11.5
2023-04-18T11:08:00.699Z,11.6
2023-04-18T11:09:00.687Z,11.6
2023-04-18T11:10:00.692Z,11.7
2023-04-18T11:11:00.722Z,11.7
2023-04-18T11:12:00.687Z,11.8
2023-04-18T11:13:00.682Z,11.9
2023-04-18T11:14:00.704Z,11.9
2023-04-18T11:15:00.692Z,12.1
2023-04-18T11:16:00.724Z,12.2
2023-04-18T11:17:00.759Z,12.2
2023-04-18T11:18:00.788Z,12.4
2023-04-18T11:19:00.694Z,12.4
2023-04-18T11:20:00.637Z,12.4
2023-04-18T11:21:00.641Z,12.4
2023-04-18T11:22:00.603Z,12.4
2023-04-18T11:23:00.545Z,12.3
2023-04-18T11:24:00.528Z,12.2
2023-04-18T11:25:00.516Z,12.2
2023-04-18T11:26:00.496Z,12.3
2023-04-18T11:27:00.539Z,12.4
2023-04-18T11:28:00.416Z,12.6
2023-04-18T11:29:00.383Z,12.6
2023-04-18T11:30:00.362Z,12.8
2023-04-18T11:31:00.342Z,12.9
2023-04-18T11:32:00.343Z,12.9
2023-04-18T11:33:00.341Z,12.9
2023-04-18T11:34:00.270Z,12.8
2023-04-18T11:35:00.292Z,12.7
2023-04-18T11:36:00.272Z,12.6
2023-04-18T11:37:00.298Z,12.6
2023-04-18T11:38:00.288Z,12.6
2023-04-18T11:39:00.276Z,12.6
2023-04-18T11:40:00.321Z,12.6
2023-04-18T11:41:00.343Z,12.6
2023-04-18T11:42:00.305Z,12.7
2023-04-18T11:43:00.282Z,12.8
2023-04-18T11:44:00.292Z,12.8
2023-04-18T11:45:00.325Z,12.9
2023-04-18T11:46:00.412Z,13
2023-04-18T11:47:00.301Z,13.1
2023-04-18T11:48:00.333Z,13.1
2023-04-18T11:49:00.342Z,13.1
2023-04-18T11:50:00.300Z,13.1
2023-04-18T11:51:00.307Z,13.2
2023-04-18T11:52:00.311Z,13.1
2023-04-18T11:53:00.285Z,13.2
2023-04-18T11:54:00.288Z,13.2
2023-04-18T11:55:00.343Z,13.1
2023-04-18T11:56:00.312Z,13.2
2023-04-18T11:57:00.307Z,13.1
2023-04-18T11:58:00.308Z,13.2
2023-04-18T11:59:00.313Z,13.2
2023-04-18T12:00:00.317Z,13.3
2023-04-18T12:01:00.326Z,13.5
2023-04-18T12:02:09.071Z,13.6
2023-04-18T12:03:00.508Z,13.6
2023-04-18T12:04:00.683Z,13.6
2023-04-18T12:05:00.673Z,13.6
2023-04-18T12:06:00.609Z,13.6
2023-04-18T12:07:00.302Z,13.6
2023-04-18T12:08:00.320Z,13.7
2023-04-18T12:09:00.334Z,13.8
2023-04-18T12:10:00.333Z,13.8
2023-04-18T12:11:00.311Z,13.8
2023-04-18T12:12:00.304Z,13.8
2023-04-18T12:13:00.353Z,13.8
2023-04-18T12:14:01.634Z,13.8
2023-04-18T12:15:00.320Z,13.8
2023-04-18T12:16:00.373Z,13.8
2023-04-18T12:17:00.319Z,13.9
2023-04-18T12:18:00.415Z,13.9
2023-04-18T12:19:00.338Z,14
2023-04-18T12:20:00.334Z,14
2023-04-18T12:21:00.310Z,14
2023-04-18T12:22:00.364Z,13.9
2023-04-18T12:23:00.349Z,13.9
2023-04-18T12:24:00.341Z,13.8
2023-04-18T12:25:00.353Z,13.8
2023-04-18T12:26:00.324Z,13.9
2023-04-18T12:27:00.323Z,14
2023-04-18T12:28:00.356Z,14.2
2023-04-18T12:29:00.378Z,14.3
2023-04-18T12:30:00.328Z,14.4
2023-04-18T12:31:00.434Z,14.4
2023-04-18T12:32:00.373Z,14.4
2023-04-18T12:33:00.412Z,14.5
2023-04-18T12:34:00.363Z,14.4
2023-04-18T12:35:00.354Z,14.4
2023-04-18T12:36:00.413Z,14.4
2023-04-18T12:37:00.359Z,14.3
2023-04-18T12:38:00.348Z,14.4
2023-04-18T12:39:00.360Z,14.4
2023-04-18T12:40:00.371Z,14.5
2023-04-18T12:41:00.336Z,14.6
2023-04-18T12:42:00.365Z,14.6
2023-04-18T12:43:02.902Z,14.8
2023-04-18T12:44:00.382Z,14.8
2023-04-18T12:45:00.428Z,14.8
2023-04-18T12:46:00.377Z,14.8
2023-04-18T12:47:00.453Z,14.9
2023-04-18T12:48:00.423Z,15.1
2023-04-18T12:49:00.381Z,15.2
2023-04-18T12:50:00.374Z,15.3
2023-04-18T12:51:00.368Z,15.4
2023-04-18T12:52:00.366Z,15.4
2023-04-18T12:53:00.398Z,15.4
2023-04-18T12:54:00.371Z,15.4
2023-04-18T12:55:00.383Z,15.4
2023-04-18T12:56:00.358Z,15.4
2023-04-18T12:57:00.353Z,15.4
2023-04-18T12:58:00.379Z,15.3
2023-04-18T12:59:00.391Z,15.3
2023-04-18T13:00:00.382Z,15.3
2023-04-18T13:01:00.412Z,15.4
2023-04-18T13:02:00.563Z,15.4
2023-04-18T13:03:00.489Z,15.3
2023-04-18T13:04:11.498Z,15.4
2023-04-18T13:05:00.392Z,15.2
2023-04-18T13:06:00.371Z,15.2
2023-04-18T13:07:00.367Z,15.3
2023-04-18T13:09:00.385Z,15.5
2023-04-18T13:10:00.374Z,15.6
2023-04-18T13:11:00.398Z,15.8
2023-04-18T13:12:00.364Z,15.9
2023-04-18T13:13:00.371Z,16.1
2023-04-18T13:14:00.379Z,16.1
2023-04-18T13:15:00.382Z,15.9
2023-04-18T13:16:00.446Z,15.9
2023-04-18T13:17:00.398Z,15.9
2023-04-18T13:18:00.419Z,15.9
2023-04-18T13:19:00.406Z,15.8
2023-04-18T13:20:00.402Z,15.8
2023-04-18T13:21:00.405Z,15.8
2023-04-18T13:22:00.400Z,15.8
2023-04-18T13:23:00.383Z,15.8
2023-04-18T13:24:00.402Z,15.8
2023-04-18T13:25:00.405Z,15.8
2023-04-18T13:26:00.418Z,15.9
2023-04-18T13:27:01.619Z,15.9
2023-04-18T13:28:00.398Z,16
2023-04-18T13:29:00.413Z,16
2023-04-18T13:30:00.391Z,15.9
2023-04-18T13:31:00.399Z,15.9
2023-04-18T13:32:00.449Z,15.8
2023-04-18T13:33:00.515Z,15.8
2023-04-18T13:34:00.417Z,15.8
2023-04-18T13:35:00.417Z,15.8
2023-04-18T13:36:00.428Z,15.6
2023-04-18T13:37:00.426Z,15.6
2023-04-18T13:38:00.414Z,15.8
2023-04-18T13:39:00.417Z,15.8
2023-04-18T13:40:00.414Z,15.8
2023-04-18T13:41:11.589Z,15.8
2023-04-18T13:42:00.423Z,15.9
2023-04-18T13:43:00.421Z,15.9
2023-04-18T13:44:00.407Z,15.9
2023-04-18T13:45:00.535Z,16
2023-04-18T13:46:00.526Z,15.9